sensor_id;sensor_type;location;lat;lon;timestamp;P1;durP1;ratioP1;P2;durP2;ratioP2
38220;SDS011;24023;51.280;7.148;2023-04-03T00:00:10;2.8;;;2.4;;
38220;SDS011;24023;51.280;7.148;2023-04-03T00:05:06;3.4;;;1.8;;
38220;SDS011;24023;51.280;7.148;2023-04-03T00:10:08;3.4;;;1.8;;
38220;SDS011;24023;51.280;7.148;2023-04-03T00:15:07;3.4;;;1.8;;
38220;SDS011;24023;51.280;7.148;2023-04-03T00:20:07;3.1;;;1.7;;
38220;SDS011;24023;51.280;7.148;2023-04-03T00:25:06;3.1;;;1.7;;
38220;SDS011;24023;51.280;7.148;2023-04-03T00:30:10;3.1;;;1.7;;
38220;SDS011;24023;51.280;7.148;2023-04-03T00:35:06;2.5;;;2.0;;
38220;SDS011;24023;51.280;7.148;2023-04-03T00:40:09;2.5;;;2.0;;
38220;SDS011;24023;51.280;7.148;2023-04-03T00:45:27;2.5;;;2.0;;
38220;SDS011;24023;51.280;7.148;2023-04-03T00:50:08;3.6;;;2.3;;
38220;SDS011;24023;51.280;7.148;2023-04-03T00:55:07;3.6;;;2.3;;
38220;SDS011;24023;51.280;7.148;2023-04-03T01:00:11;2.6;;;2.3;;
38220;SDS011;24023;51.280;7.148;2023-04-03T01:05:07;2.6;;;2.3;;
38220;SDS011;24023;51.280;7.148;2023-04-03T01:10:09;3.7;;;2.4;;
38220;SDS011;24023;51.280;7.148;2023-04-03T01:15:09;3.7;;;2.4;;
38220;SDS011;24023;51.280;7.148;2023-04-03T01:20:22;3.7;;;2.4;;
38220;SDS011;24023;51.280;7.148;2023-04-03T01:25:06;3.7;;;2.7;;
38220;SDS011;24023;51.280;7.148;2023-04-03T01:30:09;3.7;;;2.7;;
38220;SDS011;24023;51.280;7.148;2023-04-03T01:35:07;3.0;;;1.6;;
38220;SDS011;24023;51.280;7.148;2023-04-03T01:40:08;3.0;;;1.6;;
38220;SDS011;24023;51.280;7.148;2023-04-03T01:45:09;3.0;;;1.6;;
38220;SDS011;24023;51.280;7.148;2023-04-03T01:50:07;2.9;;;1.5;;
38220;SDS011;24023;51.280;7.148;2023-04-03T01:55:06;2.9;;;1.5;;
38220;SDS011;24023;51.280;7.148;2023-04-03T02:00:11;3.6;;;1.8;;
38220;SDS011;24023;51.280;7.148;2023-04-03T02:05:06;3.6;;;1.8;;
38220;SDS011;24023;51.280;7.148;2023-04-03T02:10:08;3.6;;;1.8;;
38220;SDS011;24023;51.280;7.148;2023-04-03T02:15:08;3.2;;;1.7;;
38220;SDS011;24023;51.280;7.148;2023-04-03T02:20:08;2.9;;;1.4;;
38220;SDS011;24023;51.280;7.148;2023-04-03T02:25:07;2.9;;;1.4;;
38220;SDS011;24023;51.280;7.148;2023-04-03T02:30:11;2.9;;;1.4;;
38220;SDS011;24023;51.280;7.148;2023-04-03T02:35:06;3.0;;;1.5;;
38220;SDS011;24023;51.280;7.148;2023-04-03T02:40:08;3.0;;;1.5;;
38220;SDS011;24023;51.280;7.148;2023-04-03T02:45:10;3.1;;;1.6;;
38220;SDS011;24023;51.280;7.148;2023-04-03T02:50:08;3.1;;;1.6;;
38220;SDS011;24023;51.280;7.148;2023-04-03T02:55:06;3.1;;;1.6;;
38220;SDS011;24023;51.280;7.148;2023-04-03T03:00:10;2.9;;;1.5;;
38220;SDS011;24023;51.280;7.148;2023-04-03T03:05:08;2.9;;;1.5;;
38220;SDS011;24023;51.280;7.148;2023-04-03T03:10:08;3.7;;;1.8;;
38220;SDS011;24023;51.280;7.148;2023-04-03T03:15:08;3.7;;;1.8;;
38220;SDS011;24023;51.280;7.148;2023-04-03T03:20:08;4.1;;;1.7;;
38220;SDS011;24023;51.280;7.148;2023-04-03T03:25:07;4.1;;;1.7;;
38220;SDS011;24023;51.280;7.148;2023-04-03T03:30:09;4.1;;;1.7;;
38220;SDS011;24023;51.280;7.148;2023-04-03T03:35:06;3.1;;;1.6;;
38220;SDS011;24023;51.280;7.148;2023-04-03T03:40:08;3.1;;;1.6;;
38220;SDS011;24023;51.280;7.148;2023-04-03T03:45:09;3.2;;;1.6;;
38220;SDS011;24023;51.280;7.148;2023-04-03T03:50:08;3.2;;;1.6;;
38220;SDS011;24023;51.280;7.148;2023-04-03T03:55:07;3.2;;;1.6;;
38220;SDS011;24023;51.280;7.148;2023-04-03T04:00:10;2.5;;;1.4;;
38220;SDS011;24023;51.280;7.148;2023-04-03T04:05:07;5.1;;;1.6;;
38220;SDS011;24023;51.280;7.148;2023-04-03T04:10:08;5.1;;;1.6;;
38220;SDS011;24023;51.280;7.148;2023-04-03T04:15:08;5.1;;;1.6;;
38220;SDS011;24023;51.280;7.148;2023-04-03T04:20:07;3.9;;;1.6;;
38220;SDS011;24023;51.280;7.148;2023-04-03T04:25:07;3.9;;;1.6;;
38220;SDS011;24023;51.280;7.148;2023-04-03T04:30:10;4.9;;;1.8;;
38220;SDS011;24023;51.280;7.148;2023-04-03T04:35:06;4.9;;;1.8;;
38220;SDS011;24023;51.280;7.148;2023-04-03T04:40:08;4.9;;;1.8;;
38220;SDS011;24023;51.280;7.148;2023-04-03T04:45:10;3.6;;;1.6;;
38220;SDS011;24023;51.280;7.148;2023-04-03T04:50:07;3.6;;;1.6;;
38220;SDS011;24023;51.280;7.148;2023-04-03T04:55:06;3.2;;;1.5;;
38220;SDS011;24023;51.280;7.148;2023-04-03T05:00:11;3.2;;;1.5;;
38220;SDS011;24023;51.280;7.148;2023-04-03T05:05:06;3.6;;;1.5;;
38220;SDS011;24023;51.280;7.148;2023-04-03T05:10:09;3.6;;;1.5;;
38220;SDS011;24023;51.280;7.148;2023-04-03T05:15:08;3.5;;;1.4;;
38220;SDS011;24023;51.280;7.148;2023-04-03T05:20:07;3.5;;;1.4;;
38220;SDS011;24023;51.280;7.148;2023-04-03T05:25:06;2.5;;;1.5;;
38220;SDS011;24023;51.280;7.148;2023-04-03T05:30:08;2.5;;;1.5;;
38220;SDS011;24023;51.280;7.148;2023-04-03T05:35:07;5.3;;;1.7;;
38220;SDS011;24023;51.280;7.148;2023-04-03T05:40:08;5.3;;;1.7;;
38220;SDS011;24023;51.280;7.148;2023-04-03T05:45:09;3.5;;;1.5;;
38220;SDS011;24023;51.280;7.148;2023-04-03T05:50:08;3.5;;;1.5;;
38220;SDS011;24023;51.280;7.148;2023-04-03T05:55:06;3.5;;;1.5;;
38220;SDS011;24023;51.280;7.148;2023-04-03T06:00:12;4.0;;;1.5;;
38220;SDS011;24023;51.280;7.148;2023-04-03T06:05:07;4.0;;;1.5;;
38220;SDS011;24023;51.280;7.148;2023-04-03T06:10:10;4.0;;;2.0;;
38220;SDS011;24023;51.280;7.148;2023-04-03T06:15:08;4.0;;;2.0;;
38220;SDS011;24023;51.280;7.148;2023-04-03T06:20:08;4.0;;;2.0;;
38220;SDS011;24023;51.280;7.148;2023-04-03T06:25:06;4.4;;;1.5;;
38220;SDS011;24023;51.280;7.148;2023-04-03T06:30:10;4.4;;;1.5;;
38220;SDS011;24023;51.280;7.148;2023-04-03T06:35:07;5.0;;;1.8;;
38220;SDS011;24023;51.280;7.148;2023-04-03T06:40:09;5.0;;;1.8;;
38220;SDS011;24023;51.280;7.148;2023-04-03T06:45:11;4.0;;;1.5;;
38220;SDS011;24023;51.280;7.148;2023-04-03T06:50:09;4.0;;;1.5;;
38220;SDS011;24023;51.280;7.148;2023-04-03T06:55:07;4.0;;;1.5;;
38220;SDS011;24023;51.280;7.148;2023-04-03T07:00:10;4.0;;;1.5;;
38220;SDS011;24023;51.280;7.148;2023-04-03T07:05:06;4.0;;;1.5;;
38220;SDS011;24023;51.280;7.148;2023-04-03T07:10:08;4.0;;;1.5;;
38220;SDS011;24023;51.280;7.148;2023-04-03T07:15:08;4.0;;;1.5;;
38220;SDS011;24023;51.280;7.148;2023-04-03T07:20:08;3.6;;;1.4;;
38220;SDS011;24023;51.280;7.148;2023-04-03T07:25:07;3.6;;;1.4;;
38220;SDS011;24023;51.280;7.148;2023-04-03T07:30:09;3.6;;;1.3;;
38220;SDS011;24023;51.280;7.148;2023-04-03T07:35:07;3.6;;;1.3;;
38220;SDS011;24023;51.280;7.148;2023-04-03T07:40:09;4.3;;;1.5;;
38220;SDS011;24023;51.280;7.148;2023-04-03T07:45:09;2.5;;;1.2;;
38220;SDS011;24023;51.280;7.148;2023-04-03T07:50:08;2.5;;;1.2;;
38220;SDS011;24023;51.280;7.148;2023-04-03T07:55:06;3.5;;;1.3;;
38220;SDS011;24023;51.280;7.148;2023-04-03T08:00:13;3.5;;;1.3;;
38220;SDS011;24023;51.280;7.148;2023-04-03T08:05:06;4.2;;;1.2;;
38220;SDS011;24023;51.280;7.148;2023-04-03T08:10:08;4.2;;;1.2;;
38220;SDS011;24023;51.280;7.148;2023-04-03T08:15:08;4.2;;;1.2;;
38220;SDS011;24023;51.280;7.148;2023-04-03T08:20:09;3.1;;;1.3;;
38220;SDS011;24023;51.280;7.148;2023-04-03T08:25:06;3.1;;;1.3;;
38220;SDS011;24023;51.280;7.148;2023-04-03T08:30:10;3.6;;;1.0;;
38220;SDS011;24023;51.280;7.148;2023-04-03T08:35:07;3.6;;;1.0;;
38220;SDS011;24023;51.280;7.148;2023-04-03T08:40:12;2.7;;;1.0;;
38220;SDS011;24023;51.280;7.148;2023-04-03T08:45:10;2.7;;;1.0;;
38220;SDS011;24023;51.280;7.148;2023-04-03T08:50:10;2.7;;;1.3;;
38220;SDS011;24023;51.280;7.148;2023-04-03T08:55:07;2.7;;;1.3;;
38220;SDS011;24023;51.280;7.148;2023-04-03T09:00:15;2.7;;;0.9;;
38220;SDS011;24023;51.280;7.148;2023-04-03T09:05:09;2.7;;;0.8;;
38220;SDS011;24023;51.280;7.148;2023-04-03T09:10:07;2.7;;;0.8;;
38220;SDS011;24023;51.280;7.148;2023-04-03T09:15:10;2.7;;;0.8;;
38220;SDS011;24023;51.280;7.148;2023-04-03T09:20:12;3.4;;;0.9;;
38220;SDS011;24023;51.280;7.148;2023-04-03T09:25:08;3.4;;;0.9;;
38220;SDS011;24023;51.280;7.148;2023-04-03T09:30:12;2.6;;;1.0;;
38220;SDS011;24023;51.280;7.148;2023-04-03T09:35:13;3.5;;;1.0;;
38220;SDS011;24023;51.280;7.148;2023-04-03T09:40:28;3.5;;;1.0;;
38220;SDS011;24023;51.280;7.148;2023-04-03T09:45:20;3.3;;;1.2;;
38220;SDS011;24023;51.280;7.148;2023-04-03T09:50:17;3.3;;;1.2;;
38220;SDS011;24023;51.280;7.148;2023-04-03T09:55:07;3.3;;;1.2;;
38220;SDS011;24023;51.280;7.148;2023-04-03T10:00:19;2.9;;;1.0;;
38220;SDS011;24023;51.280;7.148;2023-04-03T10:05:25;3.1;;;0.9;;
38220;SDS011;24023;51.280;7.148;2023-04-03T10:10:16;3.1;;;0.9;;
38220;SDS011;24023;51.280;7.148;2023-04-03T10:15:11;2.5;;;0.8;;
38220;SDS011;24023;51.280;7.148;2023-04-03T10:20:12;2.5;;;0.8;;
38220;SDS011;24023;51.280;7.148;2023-04-03T10:25:09;1.6;;;0.5;;
38220;SDS011;24023;51.280;7.148;2023-04-03T10:30:14;1.6;;;0.5;;
38220;SDS011;24023;51.280;7.148;2023-04-03T10:35:08;1.1;;;0.3;;
38220;SDS011;24023;51.280;7.148;2023-04-03T10:40:12;1.1;;;0.3;;
38220;SDS011;24023;51.280;7.148;2023-04-03T10:45:17;1.1;;;0.3;;
38220;SDS011;24023;51.280;7.148;2023-04-03T10:50:13;0.9;;;0.4;;
38220;SDS011;24023;51.280;7.148;2023-04-03T10:55:10;0.9;;;0.4;;
38220;SDS011;24023;51.280;7.148;2023-04-03T11:00:14;0.9;;;0.4;;
38220;SDS011;24023;51.280;7.148;2023-04-03T11:05:13;1.1;;;0.5;;
38220;SDS011;24023;51.280;7.148;2023-04-03T11:10:10;1.1;;;0.5;;
38220;SDS011;24023;51.280;7.148;2023-04-03T11:15:11;2.6;;;0.4;;
38220;SDS011;24023;51.280;7.148;2023-04-03T11:20:10;2.6;;;0.4;;
38220;SDS011;24023;51.280;7.148;2023-04-03T11:25:15;1.6;;;0.6;;
38220;SDS011;24023;51.280;7.148;2023-04-03T11:30:11;1.6;;;0.6;;
38220;SDS011;24023;51.280;7.148;2023-04-03T11:35:07;1.7;;;0.5;;
38220;SDS011;24023;51.280;7.148;2023-04-03T11:40:08;1.7;;;0.5;;
38220;SDS011;24023;51.280;7.148;2023-04-03T11:45:17;1.9;;;0.5;;
38220;SDS011;24023;51.280;7.148;2023-04-03T11:50:08;1.9;;;0.5;;
38220;SDS011;24023;51.280;7.148;2023-04-03T11:55:35;1.9;;;0.5;;
38220;SDS011;24023;51.280;7.148;2023-04-03T12:01:42;2.3;;;0.7;;
38220;SDS011;24023;51.280;7.148;2023-04-03T12:05:37;2.1;;;0.5;;
38220;SDS011;24023;51.280;7.148;2023-04-03T12:10:16;2.1;;;0.5;;
38220;SDS011;24023;51.280;7.148;2023-04-03T12:15:16;2.1;;;0.5;;
38220;SDS011;24023;51.280;7.148;2023-04-03T12:20:40;1.9;;;0.6;;
38220;SDS011;24023;51.280;7.148;2023-04-03T12:25:40;1.7;;;0.5;;
38220;SDS011;24023;51.280;7.148;2023-04-03T12:30:13;1.7;;;0.5;;
38220;SDS011;24023;51.280;7.148;2023-04-03T12:35:10;1.7;;;0.5;;
38220;SDS011;24023;51.280;7.148;2023-04-03T12:40:09;2.3;;;0.9;;
38220;SDS011;24023;51.280;7.148;2023-04-03T12:45:14;1.6;;;0.6;;
38220;SDS011;24023;51.280;7.148;2023-04-03T12:50:16;1.6;;;0.6;;
38220;SDS011;24023;51.280;7.148;2023-04-03T12:55:12;1.6;;;0.6;;
38220;SDS011;24023;51.280;7.148;2023-04-03T13:00:19;1.9;;;0.7;;
38220;SDS011;24023;51.280;7.148;2023-04-03T13:05:07;1.9;;;0.7;;
38220;SDS011;24023;51.280;7.148;2023-04-03T13:10:14;1.6;;;0.8;;
38220;SDS011;24023;51.280;7.148;2023-04-03T13:15:12;1.5;;;0.6;;
38220;SDS011;24023;51.280;7.148;2023-04-03T13:20:10;1.5;;;0.6;;
38220;SDS011;24023;51.280;7.148;2023-04-03T13:25:07;1.5;;;0.6;;
38220;SDS011;24023;51.280;7.148;2023-04-03T13:30:17;1.8;;;0.7;;
38220;SDS011;24023;51.280;7.148;2023-04-03T13:35:23;1.8;;;0.6;;
38220;SDS011;24023;51.280;7.148;2023-04-03T13:40:11;1.8;;;0.6;;
38220;SDS011;24023;51.280;7.148;2023-04-03T13:45:10;1.8;;;0.6;;
38220;SDS011;24023;51.280;7.148;2023-04-03T13:50:14;1.8;;;0.6;;
38220;SDS011;24023;51.280;7.148;2023-04-03T13:55:15;2.0;;;0.7;;
38220;SDS011;24023;51.280;7.148;2023-04-03T14:00:28;2.0;;;0.7;;
38220;SDS011;24023;51.280;7.148;2023-04-03T14:05:08;2.6;;;1.0;;
38220;SDS011;24023;51.280;7.148;2023-04-03T14:10:08;2.6;;;1.0;;
38220;SDS011;24023;51.280;7.148;2023-04-03T14:15:12;2.6;;;1.0;;
38220;SDS011;24023;51.280;7.148;2023-04-03T14:20:10;2.1;;;0.7;;
38220;SDS011;24023;51.280;7.148;2023-04-03T14:25:07;2.1;;;0.7;;
38220;SDS011;24023;51.280;7.148;2023-04-03T14:30:12;2.1;;;0.7;;
38220;SDS011;24023;51.280;7.148;2023-04-03T14:35:07;2.0;;;0.6;;
38220;SDS011;24023;51.280;7.148;2023-04-03T14:40:11;2.0;;;0.6;;
38220;SDS011;24023;51.280;7.148;2023-04-03T14:45:11;2.0;;;0.6;;
38220;SDS011;24023;51.280;7.148;2023-04-03T14:50:11;2.0;;;0.7;;
38220;SDS011;24023;51.280;7.148;2023-04-03T14:55:06;2.0;;;0.7;;
38220;SDS011;24023;51.280;7.148;2023-04-03T15:00:12;2.2;;;0.7;;
38220;SDS011;24023;51.280;7.148;2023-04-03T15:05:08;2.2;;;0.7;;
38220;SDS011;24023;51.280;7.148;2023-04-03T15:10:14;2.6;;;0.8;;
38220;SDS011;24023;51.280;7.148;2023-04-03T15:15:07;1.7;;;0.7;;
38220;SDS011;24023;51.280;7.148;2023-04-03T15:20:11;1.7;;;0.7;;
38220;SDS011;24023;51.280;7.148;2023-04-03T15:25:06;1.7;;;0.7;;
38220;SDS011;24023;51.280;7.148;2023-04-03T15:30:13;2.5;;;0.8;;
38220;SDS011;24023;51.280;7.148;2023-04-03T15:35:06;2.5;;;0.8;;
38220;SDS011;24023;51.280;7.148;2023-04-03T15:40:08;1.9;;;0.6;;
38220;SDS011;24023;51.280;7.148;2023-04-03T15:45:09;1.9;;;0.6;;
38220;SDS011;24023;51.280;7.148;2023-04-03T15:50:08;2.2;;;0.7;;
38220;SDS011;24023;51.280;7.148;2023-04-03T15:55:07;2.2;;;0.7;;
38220;SDS011;24023;51.280;7.148;2023-04-03T16:00:10;2.1;;;0.7;;
38220;SDS011;24023;51.280;7.148;2023-04-03T16:05:06;2.1;;;0.7;;
38220;SDS011;24023;51.280;7.148;2023-04-03T16:10:09;1.7;;;0.8;;
38220;SDS011;24023;51.280;7.148;2023-04-03T16:15:07;1.7;;;0.8;;
38220;SDS011;24023;51.280;7.148;2023-04-03T16:20:09;2.1;;;0.8;;
38220;SDS011;24023;51.280;7.148;2023-04-03T16:25:07;2.1;;;0.8;;
38220;SDS011;24023;51.280;7.148;2023-04-03T16:30:09;2.1;;;0.8;;
38220;SDS011;24023;51.280;7.148;2023-04-03T16:35:06;2.1;;;1.2;;
38220;SDS011;24023;51.280;7.148;2023-04-03T16:40:08;2.1;;;1.2;;
38220;SDS011;24023;51.280;7.148;2023-04-03T16:45:10;2.1;;;1.2;;
38220;SDS011;24023;51.280;7.148;2023-04-03T16:50:08;2.6;;;0.9;;
38220;SDS011;24023;51.280;7.148;2023-04-03T16:55:06;17.4;;;12.7;;
38220;SDS011;24023;51.280;7.148;2023-04-03T17:00:10;17.4;;;12.7;;
38220;SDS011;24023;51.280;7.148;2023-04-03T17:05:07;3.3;;;2.1;;
38220;SDS011;24023;51.280;7.148;2023-04-03T17:10:07;3.3;;;2.1;;
38220;SDS011;24023;51.280;7.148;2023-04-03T17:15:08;3.3;;;2.1;;
38220;SDS011;24023;51.280;7.148;2023-04-03T17:20:08;3.2;;;0.9;;
38220;SDS011;24023;51.280;7.148;2023-04-03T17:25:07;3.2;;;0.9;;
38220;SDS011;24023;51.280;7.148;2023-04-03T17:30:10;3.4;;;1.2;;
38220;SDS011;24023;51.280;7.148;2023-04-03T17:35:06;3.4;;;1.2;;
38220;SDS011;24023;51.280;7.148;2023-04-03T17:40:08;3.4;;;1.2;;
38220;SDS011;24023;51.280;7.148;2023-04-03T17:45:09;2.7;;;1.0;;
38220;SDS011;24023;51.280;7.148;2023-04-03T17:50:08;2.7;;;1.0;;
38220;SDS011;24023;51.280;7.148;2023-04-03T17:55:07;2.4;;;1.0;;
38220;SDS011;24023;51.280;7.148;2023-04-03T18:00:11;2.4;;;1.0;;
38220;SDS011;24023;51.280;7.148;2023-04-03T18:05:08;2.5;;;1.1;;
38220;SDS011;24023;51.280;7.148;2023-04-03T18:10:08;2.5;;;1.1;;
38220;SDS011;24023;51.280;7.148;2023-04-03T18:15:08;2.5;;;1.1;;
38220;SDS011;24023;51.280;7.148;2023-04-03T18:20:09;4.0;;;2.2;;
38220;SDS011;24023;51.280;7.148;2023-04-03T18:25:06;2.3;;;1.2;;
38220;SDS011;24023;51.280;7.148;2023-04-03T18:30:10;2.3;;;1.2;;
38220;SDS011;24023;51.280;7.148;2023-04-03T18:35:08;2.3;;;1.2;;
38220;SDS011;24023;51.280;7.148;2023-04-03T18:40:08;2.2;;;1.1;;
38220;SDS011;24023;51.280;7.148;2023-04-03T18:45:10;2.2;;;1.1;;
38220;SDS011;24023;51.280;7.148;2023-04-03T18:50:08;2.2;;;1.1;;
38220;SDS011;24023;51.280;7.148;2023-04-03T18:55:06;2.8;;;1.1;;
38220;SDS011;24023;51.280;7.148;2023-04-03T19:00:12;2.8;;;1.1;;
38220;SDS011;24023;51.280;7.148;2023-04-03T19:05:07;2.8;;;1.1;;
38220;SDS011;24023;51.280;7.148;2023-04-03T19:10:08;2.5;;;1.1;;
38220;SDS011;24023;51.280;7.148;2023-04-03T19:15:07;2.5;;;1.1;;
38220;SDS011;24023;51.280;7.148;2023-04-03T19:20:08;2.5;;;1.1;;
38220;SDS011;24023;51.280;7.148;2023-04-03T19:25:07;8.7;;;4.8;;
38220;SDS011;24023;51.280;7.148;2023-04-03T19:30:10;8.7;;;4.8;;
38220;SDS011;24023;51.280;7.148;2023-04-03T19:35:07;12.0;;;7.4;;
38220;SDS011;24023;51.280;7.148;2023-04-03T19:40:08;12.0;;;7.4;;
38220;SDS011;24023;51.280;7.148;2023-04-03T19:45:09;6.1;;;3.8;;
38220;SDS011;24023;51.280;7.148;2023-04-03T19:50:08;6.1;;;3.8;;
38220;SDS011;24023;51.280;7.148;2023-04-03T19:55:06;12.6;;;7.6;;
38220;SDS011;24023;51.280;7.148;2023-04-03T20:00:10;12.6;;;7.6;;
38220;SDS011;24023;51.280;7.148;2023-04-03T20:05:06;3.5;;;2.1;;
38220;SDS011;24023;51.280;7.148;2023-04-03T20:10:08;3.5;;;2.1;;
38220;SDS011;24023;51.280;7.148;2023-04-03T20:15:08;2.7;;;1.6;;
38220;SDS011;24023;51.280;7.148;2023-04-03T20:20:07;2.7;;;1.6;;
38220;SDS011;24023;51.280;7.148;2023-04-03T20:25:07;2.7;;;1.6;;
38220;SDS011;24023;51.280;7.148;2023-04-03T20:30:10;2.9;;;1.1;;
38220;SDS011;24023;51.280;7.148;2023-04-03T20:35:06;2.9;;;1.1;;
38220;SDS011;24023;51.280;7.148;2023-04-03T20:40:08;3.4;;;1.6;;
38220;SDS011;24023;51.280;7.148;2023-04-03T20:45:10;3.4;;;1.6;;
38220;SDS011;24023;51.280;7.148;2023-04-03T20:50:09;3.4;;;1.6;;
38220;SDS011;24023;51.280;7.148;2023-04-03T20:55:06;2.6;;;1.4;;
38220;SDS011;24023;51.280;7.148;2023-04-03T21:00:12;2.6;;;1.4;;
38220;SDS011;24023;51.280;7.148;2023-04-03T21:05:07;1.9;;;1.2;;
38220;SDS011;24023;51.280;7.148;2023-04-03T21:20:08;3.6;;;1.3;;
38220;SDS011;24023;51.280;7.148;2023-04-03T21:25:07;3.6;;;1.3;;
38220;SDS011;24023;51.280;7.148;2023-04-03T21:30:10;2.7;;;1.2;;
38220;SDS011;24023;51.280;7.148;2023-04-03T21:35:06;2.7;;;1.2;;
38220;SDS011;24023;51.280;7.148;2023-04-03T21:40:07;3.0;;;1.3;;
38220;SDS011;24023;51.280;7.148;2023-04-03T21:45:09;3.0;;;1.3;;
38220;SDS011;24023;51.280;7.148;2023-04-03T21:50:08;3.8;;;1.2;;
38220;SDS011;24023;51.280;7.148;2023-04-03T21:55:08;3.8;;;1.2;;
38220;SDS011;24023;51.280;7.148;2023-04-03T22:00:19;3.8;;;1.2;;
38220;SDS011;24023;51.280;7.148;2023-04-03T22:05:07;2.4;;;1.2;;
38220;SDS011;24023;51.280;7.148;2023-04-03T22:10:07;2.4;;;1.2;;
38220;SDS011;24023;51.280;7.148;2023-04-03T22:15:08;2.8;;;1.3;;
38220;SDS011;24023;51.280;7.148;2023-04-03T22:20:10;2.8;;;1.3;;
38220;SDS011;24023;51.280;7.148;2023-04-03T22:25:06;2.8;;;1.3;;
38220;SDS011;24023;51.280;7.148;2023-04-03T22:30:10;3.1;;;1.2;;
38220;SDS011;24023;51.280;7.148;2023-04-03T22:35:07;3.1;;;1.2;;
38220;SDS011;24023;51.280;7.148;2023-04-03T22:40:08;3.7;;;1.3;;
38220;SDS011;24023;51.280;7.148;2023-04-03T22:45:10;3.7;;;1.3;;
38220;SDS011;24023;51.280;7.148;2023-04-03T22:50:09;2.6;;;1.2;;
38220;SDS011;24023;51.280;7.148;2023-04-03T22:55:06;2.6;;;1.2;;
38220;SDS011;24023;51.280;7.148;2023-04-03T23:00:11;2.6;;;1.2;;
38220;SDS011;24023;51.280;7.148;2023-04-03T23:05:07;2.6;;;1.3;;
38220;SDS011;24023;51.280;7.148;2023-04-03T23:10:08;2.6;;;1.3;;
38220;SDS011;24023;51.280;7.148;2023-04-03T23:15:08;2.4;;;1.3;;
38220;SDS011;24023;51.280;7.148;2023-04-03T23:20:08;2.4;;;1.3;;
38220;SDS011;24023;51.280;7.148;2023-04-03T23:25:06;2.7;;;1.1;;
38220;SDS011;24023;51.280;7.148;2023-04-03T23:30:09;2.7;;;1.1;;
38220;SDS011;24023;51.280;7.148;2023-04-03T23:35:06;2.7;;;1.1;;
38220;SDS011;24023;51.280;7.148;2023-04-03T23:40:08;2.8;;;1.0;;
38220;SDS011;24023;51.280;7.148;2023-04-03T23:45:09;2.8;;;1.0;;
38220;SDS011;24023;51.280;7.148;2023-04-03T23:50:08;3.0;;;1.5;;
38220;SDS011;24023;51.280;7.148;2023-04-03T23:55:06;3.0;;;1.5;;
